Serene Lydia — C6YE7 — position and weather

sailwx.info

Track history (hours):
 
Tides and Currents Weather Stations Pressure Air Temp Water Temp Dewpoint Dewpoint Depression Visibility Wind Speed Wind Dir Waves Ship Positions

Serene Lydia

Last reported at 2016-Dec-20 05:25 UTC. Time now 2017-Feb-26 23:52 UTC.
Position N 37°31' E 023°58'.
Warning: this ship's position is months out of date.

Length 190 m; draft 12.1 m.

Type: Ship. MMSI: 311030200.

Date/timePositionNaut miles runAvg speedWind from/ knotsBaromVisibWave heightAir tempDewpointWater temp
2016-Dec-20 05:25N 37°31' E 023°58'1112.8
2016-Dec-20 04:33N 37°37' E 023°46'1312.6
2016-Dec-20 03:33N 37°48' E 023°37'6 6.1
2016-Dec-20 02:33N 37°52' E 023°32'0 0.0
2016-Dec-20 01:33N 37°52' E 023°32'0 0.0
2016-Dec-20 00:33N 37°52' E 023°32'0 0.0
2016-Dec-19 23:34N 37°52' E 023°32'0 0.0
2016-Dec-19 22:33N 37°52' E 023°32'0 0.0
2016-Dec-19 21:33N 37°52' E 023°32'0 0.0
2016-Dec-19 20:33N 37°52' E 023°32'0 0.0
2016-Dec-19 19:33N 37°52' E 023°32'0 0.0
2016-Dec-19 18:33N 37°52' E 023°32'0 0.0
2016-Dec-19 17:33N 37°52' E 023°32'0 0.0
2016-Dec-19 16:34N 37°52' E 023°32'0 0.0
2016-Dec-19 15:34N 37°52' E 023°32'0 0.0
2016-Dec-19 14:30N 37°52' E 023°32'0 0.1
2016-Dec-19 13:33N 37°52' E 023°32'5 4.9
2016-Dec-19 12:34N 37°51' E 023°38'1212.0
2016-Dec-19 11:33N 37°41' E 023°45'1313.0
2016-Dec-19 10:32N 37°36' E 024°01'1412.1
2016-Dec-19 09:24N 37°44' E 024°15'1213.6
2016-Dec-19 08:31N 37°50' E 024°28'  
2016-Dec-16 18:23N 46°21' E 030°38'0 0.0
2016-Dec-16 16:33N 46°21' E 030°38'0 0.0
2016-Dec-16 15:29N 46°21' E 030°38'0 0.0
2016-Dec-16 13:17N 46°21' E 030°38'0 0.0
2016-Dec-16 11:11N 46°21' E 030°38'0 0.0
2016-Dec-16 09:12N 46°21' E 030°38'0 0.0
2016-Dec-16 07:05N 46°21' E 030°38'0 0.0
2016-Dec-16 06:16N 46°21' E 030°38'0 0.0
2016-Dec-16 05:31N 46°21' E 030°38'0 0.0
2016-Dec-16 04:30N 46°21' E 030°38'0 0.0
2016-Dec-15 11:33N 46°21' E 030°38'0 0.0
2016-Dec-15 10:33N 46°21' E 030°38'0 0.0
2016-Dec-15 09:33N 46°21' E 030°38'0 0.0
2016-Dec-15 07:33N 46°21' E 030°38'0 0.0
2016-Dec-15 06:33N 46°21' E 030°38'0 0.0
2016-Dec-15 05:34N 46°21' E 030°38'0 0.0
2016-Dec-15 02:21N 46°21' E 030°38'0 0.0
2016-Dec-15 01:33N 46°21' E 030°38'0 0.0
2016-Dec-15 00:33N 46°21' E 030°38'0 0.0
2016-Dec-14 23:33N 46°21' E 030°38'0 0.0
2016-Dec-14 22:33N 46°21' E 030°38'0 0.0
2016-Dec-14 21:33N 46°21' E 030°38'0 0.0
2016-Dec-14 20:28N 46°21' E 030°38'0 0.0
2016-Dec-14 19:33N 46°21' E 030°38'0 0.0
2016-Dec-14 18:31N 46°21' E 030°38'0 0.0
2016-Dec-14 17:33N 46°21' E 030°38'0 0.0
2016-Dec-14 16:32N 46°21' E 030°38'0 0.0
2016-Dec-14 15:31N 46°21' E 030°38'0 0.0
2016-Dec-14 12:33N 46°21' E 030°38'0 0.0
2016-Dec-14 09:30N 46°21' E 030°38'0 0.0
2016-Dec-14 08:33N 46°21' E 030°38'0 0.0
2016-Dec-14 07:33N 46°21' E 030°38'0 0.0
2016-Dec-14 06:34N 46°21' E 030°38'3 2.3
2016-Dec-14 05:07N 46°19' E 030°42'3 0.2
2016-Dec-13 12:08N 46°16' E 030°44'  
2016-Dec-10 11:34N 46°21' E 030°38'0 0.0
2016-Dec-10 10:33N 46°21' E 030°38'0 0.0
2016-Dec-10 09:33N 46°21' E 030°38'0 0.0
2016-Dec-10 08:33N 46°21' E 030°38'0 0.0
2016-Dec-10 07:33N 46°21' E 030°38'0 0.0
2016-Dec-10 06:34N 46°21' E 030°38'0 0.0
2016-Dec-10 05:33N 46°21' E 030°38'  
Track history (hours):
 
Tides and Currents Weather Stations Pressure Air Temp Water Temp Dewpoint Dewpoint Depression Visibility Wind Speed Wind Dir Waves Ship Positions

Serene Lydia

Last reported at 2016-Dec-20 05:25 UTC. Time now 2017-Feb-26 23:52 UTC.
Position N 37°31' E 023°58'.
Warning: this ship's position is months out of date.

Length 190 m; draft 12.1 m.

Type: Ship. MMSI: 311030200.

Date/timePositionNaut miles runAvg speedWind from/ knotsBaromVisibWave heightAir tempDewpointWater temp
2016-Dec-20 05:25N 37°31' E 023°58'1112.8
2016-Dec-20 04:33N 37°37' E 023°46'1312.6
2016-Dec-20 03:33N 37°48' E 023°37'6 6.1
2016-Dec-20 02:33N 37°52' E 023°32'0 0.0
2016-Dec-20 01:33N 37°52' E 023°32'0 0.0
2016-Dec-20 00:33N 37°52' E 023°32'0 0.0
2016-Dec-19 23:34N 37°52' E 023°32'0 0.0
2016-Dec-19 22:33N 37°52' E 023°32'0 0.0
2016-Dec-19 21:33N 37°52' E 023°32'0 0.0
2016-Dec-19 20:33N 37°52' E 023°32'0 0.0
2016-Dec-19 19:33N 37°52' E 023°32'0 0.0
2016-Dec-19 18:33N 37°52' E 023°32'0 0.0
2016-Dec-19 17:33N 37°52' E 023°32'0 0.0
2016-Dec-19 16:34N 37°52' E 023°32'0 0.0
2016-Dec-19 15:34N 37°52' E 023°32'0 0.0
2016-Dec-19 14:30N 37°52' E 023°32'0 0.1
2016-Dec-19 13:33N 37°52' E 023°32'5 4.9
2016-Dec-19 12:34N 37°51' E 023°38'1212.0
2016-Dec-19 11:33N 37°41' E 023°45'1313.0
2016-Dec-19 10:32N 37°36' E 024°01'1412.1
2016-Dec-19 09:24N 37°44' E 024°15'1213.6
2016-Dec-19 08:31N 37°50' E 024°28'  
2016-Dec-16 18:23N 46°21' E 030°38'0 0.0
2016-Dec-16 16:33N 46°21' E 030°38'0 0.0
2016-Dec-16 15:29N 46°21' E 030°38'0 0.0
2016-Dec-16 13:17N 46°21' E 030°38'0 0.0
2016-Dec-16 11:11N 46°21' E 030°38'0 0.0
2016-Dec-16 09:12N 46°21' E 030°38'0 0.0
2016-Dec-16 07:05N 46°21' E 030°38'0 0.0
2016-Dec-16 06:16N 46°21' E 030°38'0 0.0
2016-Dec-16 05:31N 46°21' E 030°38'0 0.0
2016-Dec-16 04:30N 46°21' E 030°38'0 0.0
2016-Dec-15 11:33N 46°21' E 030°38'0 0.0
2016-Dec-15 10:33N 46°21' E 030°38'0 0.0
2016-Dec-15 09:33N 46°21' E 030°38'0 0.0
2016-Dec-15 07:33N 46°21' E 030°38'0 0.0
2016-Dec-15 06:33N 46°21' E 030°38'0 0.0
2016-Dec-15 05:34N 46°21' E 030°38'0 0.0
2016-Dec-15 02:21N 46°21' E 030°38'0 0.0
2016-Dec-15 01:33N 46°21' E 030°38'0 0.0
2016-Dec-15 00:33N 46°21' E 030°38'0 0.0
2016-Dec-14 23:33N 46°21' E 030°38'0 0.0
2016-Dec-14 22:33N 46°21' E 030°38'0 0.0
2016-Dec-14 21:33N 46°21' E 030°38'0 0.0
2016-Dec-14 20:28N 46°21' E 030°38'0 0.0
2016-Dec-14 19:33N 46°21' E 030°38'0 0.0
2016-Dec-14 18:31N 46°21' E 030°38'0 0.0
2016-Dec-14 17:33N 46°21' E 030°38'0 0.0
2016-Dec-14 16:32N 46°21' E 030°38'0 0.0
2016-Dec-14 15:31N 46°21' E 030°38'0 0.0
2016-Dec-14 12:33N 46°21' E 030°38'0 0.0
2016-Dec-14 09:30N 46°21' E 030°38'0 0.0
2016-Dec-14 08:33N 46°21' E 030°38'0 0.0
2016-Dec-14 07:33N 46°21' E 030°38'0 0.0
2016-Dec-14 06:34N 46°21' E 030°38'3 2.3
2016-Dec-14 05:07N 46°19' E 030°42'3 0.2
2016-Dec-13 12:08N 46°16' E 030°44'  
2016-Dec-10 11:34N 46°21' E 030°38'0 0.0
2016-Dec-10 10:33N 46°21' E 030°38'0 0.0
2016-Dec-10 09:33N 46°21' E 030°38'0 0.0
2016-Dec-10 08:33N 46°21' E 030°38'0 0.0
2016-Dec-10 07:33N 46°21' E 030°38'0 0.0
2016-Dec-10 06:34N 46°21' E 030°38'0 0.0
2016-Dec-10 05:33N 46°21' E 030°38'  

Dump ship's entire track history